createdAt,value
2023-03-24T00:00:03.702Z,57.67
2023-03-24T00:01:09.011Z,57.30
2023-03-24T00:02:12.955Z,57.01
2023-03-24T00:03:18.289Z,57.63
2023-03-24T00:04:21.167Z,57.77
2023-03-24T00:05:23.779Z,57.50
2023-03-24T00:06:26.577Z,57.94
2023-03-24T00:07:30.517Z,57.79
2023-03-24T00:08:36.969Z,57.79
2023-03-24T00:09:42.181Z,57.47
2023-03-24T00:10:47.090Z,57.34
2023-03-24T00:11:49.595Z,57.14
2023-03-24T00:12:51.840Z,57.38
2023-03-24T00:13:56.554Z,57.33
2023-03-24T00:15:01.010Z,57.17
2023-03-24T00:16:08.571Z,57.11
2023-03-24T00:17:15.840Z,57.18
2023-03-24T00:18:21.112Z,57.27
2023-03-24T00:19:24.433Z,57.34
2023-03-24T00:20:28.417Z,57.26
2023-03-24T00:21:31.971Z,57.51
2023-03-24T00:22:36.235Z,57.86
2023-03-24T00:23:40.843Z,57.86
2023-03-24T00:24:48.169Z,57.85
2023-03-24T00:26:03.235Z,57.61
2023-03-24T00:27:05.732Z,57.92
2023-03-24T00:28:10.094Z,57.81
2023-03-24T00:29:13.266Z,57.80
2023-03-24T00:30:18.129Z,57.44
2023-03-24T00:31:20.493Z,57.69
2023-03-24T00:32:23.614Z,57.54
2023-03-24T00:33:26.052Z,57.71
2023-03-24T00:34:28.315Z,57.71
2023-03-24T00:35:30.914Z,57.98
2023-03-24T00:36:33.878Z,58.03
2023-03-24T00:37:38.838Z,58.36
2023-03-24T00:38:41.423Z,58.30
2023-03-24T00:39:43.976Z,58.30
2023-03-24T00:40:48.160Z,58.01
2023-03-24T00:41:50.888Z,57.97
2023-03-24T00:42:54.448Z,57.98
2023-03-24T00:43:59.670Z,57.69
2023-03-24T00:45:04.574Z,57.72
2023-03-24T00:46:10.579Z,57.68
2023-03-24T00:47:13.617Z,58.02
2023-03-24T00:48:17.785Z,57.95
2023-03-24T00:49:22.466Z,57.97
2023-03-24T00:50:27.483Z,57.75
2023-03-24T00:51:36.863Z,57.69
2023-03-24T00:52:41.120Z,57.62
2023-03-24T00:53:43.596Z,57.88
2023-03-24T00:54:49.231Z,58.05
2023-03-24T00:55:51.895Z,58.01
2023-03-24T00:56:56.330Z,57.89
2023-03-24T00:58:00.501Z,58.19
2023-03-24T00:59:03.817Z,57.96
2023-03-24T01:00:12.981Z,58.55
2023-03-24T01:01:15.451Z,58.79
2023-03-24T01:02:24.121Z,58.10
2023-03-24T01:03:27.006Z,57.99
2023-03-24T01:04:30.080Z,58.14
2023-03-24T01:05:33.330Z,58.52
2023-03-24T01:06:36.865Z,58.37
2023-03-24T01:07:40.980Z,58.46
2023-03-24T01:08:44.494Z,58.13
2023-03-24T01:09:50.286Z,58.26
2023-03-24T01:10:53.884Z,58.74
2023-03-24T01:11:56.841Z,58.22
2023-03-24T01:13:00.350Z,58.44
2023-03-24T01:14:04.628Z,58.27
2023-03-24T01:15:11.340Z,58.36
2023-03-24T01:16:14.624Z,58.40
2023-03-24T01:17:18.771Z,58.28
2023-03-24T01:18:23.709Z,58.33
2023-03-24T01:19:26.587Z,58.30
2023-03-24T01:20:32.405Z,58.47
2023-03-24T01:21:36.377Z,58.23
2023-03-24T01:22:42.882Z,58.20
2023-03-24T01:23:45.232Z,58.13
2023-03-24T01:24:49.133Z,58.06
2023-03-24T01:25:53.527Z,58.06
2023-03-24T01:26:56.875Z,58.10
2023-03-24T01:27:59.610Z,58.18
2023-03-24T01:29:03.048Z,58.18
2023-03-24T01:30:07.350Z,58.17
2023-03-24T01:31:10.446Z,58.17
2023-03-24T01:32:12.942Z,58.37
2023-03-24T01:33:15.849Z,58.18
2023-03-24T01:34:18.265Z,57.90
2023-03-24T01:35:22.689Z,57.90
2023-03-24T01:36:25.008Z,58.07
2023-03-24T01:37:27.265Z,57.92
2023-03-24T01:38:29.858Z,58.08
2023-03-24T01:39:32.209Z,58.09
2023-03-24T01:40:37.145Z,57.97
2023-03-24T01:41:41.891Z,58.13
2023-03-24T01:42:44.867Z,58.01
2023-03-24T01:43:48.391Z,58.08
2023-03-24T01:44:53.914Z,58.27
2023-03-24T01:46:02.829Z,58.33
2023-03-24T01:47:08.496Z,58.50
2023-03-24T01:48:17.420Z,58.38
2023-03-24T01:49:21.135Z,58.22
2023-03-24T01:50:24.144Z,58.22
2023-03-24T01:51:35.812Z,58.41
2023-03-24T01:52:39.562Z,58.54
2023-03-24T01:53:51.409Z,58.38
2023-03-24T01:55:00.144Z,58.37
2023-03-24T01:56:05.114Z,58.53
2023-03-24T01:57:15.818Z,58.50
2023-03-24T01:58:20.160Z,58.60
2023-03-24T01:59:28.189Z,58.56
2023-03-24T02:00:37.129Z,59.14
2023-03-24T02:01:46.278Z,58.67
2023-03-24T02:03:06.196Z,58.68
2023-03-24T02:04:11.536Z,58.65
2023-03-24T02:05:15.562Z,58.85
2023-03-24T02:06:21.940Z,58.90
2023-03-24T02:07:39.568Z,59.21
2023-03-24T02:08:54.460Z,59.13
2023-03-24T02:09:58.412Z,59.59
2023-03-24T02:11:01.942Z,59.31
2023-03-24T02:12:06.954Z,59.04
2023-03-24T02:13:10.766Z,58.94
2023-03-24T02:14:14.626Z,59.01
2023-03-24T02:15:19.153Z,58.79
2023-03-24T02:16:34.261Z,58.90
2023-03-24T02:18:02.373Z,58.97
2023-03-24T02:19:26.515Z,59.04
2023-03-24T02:20:32.714Z,58.96
2023-03-24T02:21:53.577Z,58.91
2023-03-24T02:23:07.323Z,59.05
2023-03-24T02:24:33.299Z,58.99
2023-03-24T02:25:58.155Z,59.24
2023-03-24T02:27:19.530Z,59.05
2023-03-24T02:28:31.600Z,58.97
2023-03-24T02:29:54.088Z,59.03
2023-03-24T02:31:35.596Z,59.04
2023-03-24T02:32:58.521Z,59.08
2023-03-24T02:34:19.518Z,59.14
2023-03-24T02:35:32.660Z,59.06
2023-03-24T02:36:58.938Z,58.99
2023-03-24T02:38:29.390Z,59.22
2023-03-24T02:39:53.672Z,59.09
2023-03-24T02:41:05.959Z,59.34
2023-03-24T02:42:24.077Z,59.09
2023-03-24T02:43:40.477Z,59.13
2023-03-24T02:44:58.460Z,59.27
2023-03-24T02:46:24.495Z,59.53
2023-03-24T02:47:33.973Z,59.53
2023-03-24T02:48:42.941Z,59.67
2023-03-24T02:49:48.858Z,59.89
2023-03-24T02:50:57.997Z,59.97
2023-03-24T02:52:06.840Z,59.98
2023-03-24T02:53:23.283Z,59.91
2023-03-24T02:54:47.776Z,59.77
2023-03-24T02:56:09.227Z,59.92
2023-03-24T02:57:21.247Z,60.18
2023-03-24T02:58:55.455Z,60.20
2023-03-24T03:00:17.703Z,60.15
2023-03-24T03:01:35.799Z,60.19
2023-03-24T03:02:51.080Z,60.31
2023-03-24T03:03:57.173Z,60.33
2023-03-24T03:05:06.731Z,60.38
2023-03-24T03:06:22.438Z,60.20
2023-03-24T03:07:26.757Z,60.26
2023-03-24T03:08:33.360Z,60.59
2023-03-24T03:09:39.359Z,60.59
2023-03-24T03:10:45.891Z,60.46
2023-03-24T03:11:52.019Z,60.46
2023-03-24T03:12:58.442Z,60.59
2023-03-24T03:14:04.347Z,60.54
2023-03-24T03:15:11.308Z,60.57
2023-03-24T03:16:17.858Z,60.35
2023-03-24T03:17:28.539Z,60.33
2023-03-24T03:18:40.368Z,60.46
2023-03-24T03:19:46.535Z,60.48
2023-03-24T03:20:52.627Z,60.19
2023-03-24T03:21:58.290Z,59.96
2023-03-24T03:23:05.024Z,60.11
2023-03-24T03:24:10.937Z,59.90
2023-03-24T03:25:17.812Z,59.92
2023-03-24T03:26:27.955Z,60.00
2023-03-24T03:27:35.622Z,60.12
2023-03-24T03:28:43.024Z,59.92
2023-03-24T03:29:49.526Z,59.83
2023-03-24T03:30:58.848Z,59.81
2023-03-24T03:32:10.523Z,59.92
2023-03-24T03:33:17.646Z,59.97
2023-03-24T03:34:35.759Z,60.00
2023-03-24T03:35:54.177Z,60.07
2023-03-24T03:37:09.203Z,59.85
2023-03-24T03:38:35.445Z,59.83
2023-03-24T03:39:44.168Z,59.82
2023-03-24T03:40:58.766Z,59.85
2023-03-24T03:42:06.016Z,59.65
2023-03-24T03:43:09.411Z,59.66
2023-03-24T03:44:14.154Z,59.61
2023-03-24T03:45:17.991Z,59.46
2023-03-24T03:46:20.643Z,59.43
2023-03-24T03:47:23.837Z,59.48
2023-03-24T03:48:28.705Z,59.54
2023-03-24T03:49:31.895Z,59.43
2023-03-24T03:50:35.340Z,59.35
2023-03-24T03:51:40.245Z,59.41
2023-03-24T03:52:44.070Z,59.41
2023-03-24T03:53:50.207Z,59.43
2023-03-24T03:54:55.448Z,59.46
2023-03-24T03:55:58.061Z,59.32
2023-03-24T03:57:01.892Z,59.31
2023-03-24T03:58:18.906Z,59.36
2023-03-24T03:59:29.167Z,59.39
2023-03-24T04:00:33.099Z,59.50
2023-03-24T04:01:49.479Z,59.57
2023-03-24T04:03:05.310Z,59.58
2023-03-24T04:04:21.173Z,59.58
2023-03-24T04:07:33.268Z,59.58
2023-03-24T04:08:47.399Z,59.58
2023-03-24T04:10:04.823Z,59.49
2023-03-24T04:11:19.675Z,59.55
2023-03-24T04:14:21.664Z,59.39
2023-03-24T04:15:51.123Z,59.45
2023-03-24T04:17:14.754Z,59.58
2023-03-24T04:18:23.808Z,59.63
2023-03-24T04:19:43.417Z,59.67
2023-03-24T04:21:05.732Z,59.80
2023-03-24T04:22:23.610Z,59.96
2023-03-24T04:23:39.306Z,60.00
2023-03-24T04:25:09.337Z,59.96
2023-03-24T04:26:39.152Z,59.93
2023-03-24T04:27:45.817Z,59.93
2023-03-24T04:28:56.976Z,60.01
2023-03-24T04:30:18.149Z,60.00
2023-03-24T04:31:33.557Z,60.03
2023-03-24T04:33:01.845Z,59.99
2023-03-24T04:34:15.056Z,60.13
2023-03-24T04:35:26.299Z,60.08
2023-03-24T04:38:02.959Z,60.27
2023-03-24T04:39:06.576Z,60.25
2023-03-24T04:40:16.757Z,60.39
2023-03-24T04:41:25.452Z,60.30
2023-03-24T04:42:48.157Z,60.27
2023-03-24T04:43:52.348Z,60.25
2023-03-24T04:44:57.118Z,60.37
2023-03-24T04:46:04.651Z,60.40
2023-03-24T04:47:16.805Z,60.46
2023-03-24T04:48:21.062Z,60.38
2023-03-24T04:49:28.425Z,60.64
2023-03-24T04:50:33.721Z,60.86
2023-03-24T04:51:36.685Z,61.15
2023-03-24T04:52:42.909Z,61.52
2023-03-24T04:53:46.616Z,61.70
2023-03-24T04:54:51.705Z,61.81
2023-03-24T04:56:02.564Z,61.91
2023-03-24T04:57:21.699Z,61.83
2023-03-24T04:59:35.970Z,61.47
2023-03-24T05:00:40.972Z,61.67
2023-03-24T05:01:46.014Z,61.50
2023-03-24T05:04:18.251Z,61.61
2023-03-24T05:05:21.908Z,61.60
2023-03-24T05:06:25.728Z,61.73
2023-03-24T05:07:28.064Z,62.04
2023-03-24T05:08:32.951Z,62.46
2023-03-24T05:09:36.437Z,63.12
2023-03-24T05:10:39.029Z,62.82
2023-03-24T05:11:42.237Z,62.92
2023-03-24T05:12:44.700Z,62.83
2023-03-24T05:13:49.077Z,63.11
2023-03-24T05:14:51.430Z,63.27
2023-03-24T05:15:54.174Z,63.03
2023-03-24T05:17:02.493Z,62.96
2023-03-24T05:18:06.275Z,62.88
2023-03-24T05:19:09.251Z,62.65
2023-03-24T05:20:12.268Z,62.91
2023-03-24T05:21:17.021Z,62.54
2023-03-24T05:22:19.348Z,62.30
2023-03-24T05:23:21.509Z,62.28
2023-03-24T05:24:25.415Z,62.36
2023-03-24T05:25:28.497Z,62.37
2023-03-24T05:26:33.182Z,62.26
2023-03-24T05:27:37.630Z,62.38
2023-03-24T05:28:42.090Z,62.23
2023-03-24T05:29:46.462Z,62.60
2023-03-24T05:30:50.934Z,62.80
2023-03-24T05:31:55.731Z,62.77
2023-03-24T05:32:59.013Z,62.93
2023-03-24T05:34:01.456Z,63.03
2023-03-24T05:35:06.196Z,63.15
2023-03-24T05:36:10.516Z,62.97
2023-03-24T05:37:17.759Z,63.34
2023-03-24T05:38:22.223Z,63.41
2023-03-24T05:39:27.787Z,63.50
2023-03-24T05:40:32.122Z,63.72
2023-03-24T05:41:39.860Z,63.56
2023-03-24T05:42:42.541Z,63.49
2023-03-24T05:43:46.142Z,63.37
2023-03-24T05:44:50.224Z,63.17
2023-03-24T05:45:56.108Z,63.02
2023-03-24T05:47:01.498Z,63.06
2023-03-24T05:48:03.988Z,63.51
2023-03-24T05:49:08.217Z,63.72
2023-03-24T05:50:13.605Z,63.61
2023-03-24T05:51:16.605Z,64.11
2023-03-24T05:52:23.015Z,64.13
2023-03-24T05:53:27.077Z,63.97
2023-03-24T05:54:33.814Z,63.99
2023-03-24T05:55:41.136Z,63.75
2023-03-24T05:56:45.496Z,63.67
2023-03-24T05:57:51.242Z,63.58
2023-03-24T05:58:55.433Z,63.26
2023-03-24T05:59:58.571Z,62.88
2023-03-24T06:01:19.426Z,62.46
2023-03-24T06:02:24.519Z,62.03
2023-03-24T06:03:31.419Z,61.94
2023-03-24T06:04:36.283Z,61.93
2023-03-24T06:05:42.066Z,61.76
2023-03-24T06:06:45.175Z,61.45
2023-03-24T06:07:48.739Z,61.24
2023-03-24T06:08:55.553Z,61.12
2023-03-24T06:10:01.674Z,60.86
2023-03-24T06:11:05.903Z,60.60
2023-03-24T06:12:10.834Z,60.82
2023-03-24T06:13:15.448Z,60.80
2023-03-24T06:14:20.142Z,61.06
2023-03-24T06:15:26.709Z,61.10
2023-03-24T06:16:33.185Z,61.31
2023-03-24T06:17:38.404Z,61.47
2023-03-24T06:18:42.812Z,61.50
2023-03-24T06:19:50.699Z,61.54
2023-03-24T06:20:59.191Z,61.37
2023-03-24T06:22:03.371Z,61.20
2023-03-24T06:23:08.470Z,60.77
2023-03-24T06:24:15.436Z,60.85
2023-03-24T06:25:22.012Z,60.47
2023-03-24T06:26:26.495Z,60.23
2023-03-24T06:27:30.889Z,59.92
2023-03-24T06:28:34.615Z,60.29
2023-03-24T06:29:40.909Z,60.36
2023-03-24T06:30:46.068Z,60.40
2023-03-24T06:31:50.540Z,60.18
2023-03-24T06:32:56.323Z,60.12
2023-03-24T06:34:00.210Z,60.21
2023-03-24T06:35:03.682Z,60.20
2023-03-24T06:36:13.898Z,60.20
2023-03-24T06:37:18.279Z,60.28
2023-03-24T06:38:22.738Z,60.33
2023-03-24T06:39:25.906Z,60.29
2023-03-24T06:40:28.913Z,60.50
2023-03-24T06:41:34.046Z,60.61
2023-03-24T06:42:37.114Z,60.33
2023-03-24T06:43:39.532Z,60.17
2023-03-24T06:44:41.879Z,60.10
2023-03-24T06:45:45.733Z,60.25
2023-03-24T06:46:50.989Z,60.38
2023-03-24T06:47:57.743Z,60.51
2023-03-24T06:49:00.823Z,60.63
2023-03-24T06:50:04.939Z,60.62
2023-03-24T06:51:08.592Z,60.46
2023-03-24T06:52:12.287Z,60.29
2023-03-24T06:53:16.429Z,60.24
2023-03-24T06:54:18.640Z,60.00
2023-03-24T06:55:21.652Z,60.08
2023-03-24T06:56:24.408Z,59.96
2023-03-24T06:57:30.057Z,59.79
2023-03-24T06:58:40.280Z,59.68
2023-03-24T06:59:45.691Z,59.82
2023-03-24T07:00:49.817Z,59.66
2023-03-24T07:01:54.923Z,59.48
2023-03-24T07:03:03.426Z,59.36
2023-03-24T07:04:06.753Z,59.41
2023-03-24T07:05:14.059Z,59.55
2023-03-24T07:06:20.059Z,59.62
2023-03-24T07:08:08.322Z,59.50
2023-03-24T07:08:38.584Z,59.65
2023-03-24T07:09:39.092Z,59.69
2023-03-24T07:10:41.962Z,59.78
2023-03-24T07:11:45.350Z,59.83
2023-03-24T07:12:48.123Z,59.56
2023-03-24T07:13:51.866Z,59.57
2023-03-24T07:14:55.474Z,59.79
2023-03-24T07:15:57.743Z,59.70
2023-03-24T07:17:01.415Z,59.92
2023-03-24T07:18:06.192Z,59.95
2023-03-24T07:19:13.359Z,59.83
2023-03-24T07:20:17.189Z,59.63
2023-03-24T07:21:21.803Z,59.64
2023-03-24T07:22:25.456Z,59.74
2023-03-24T07:24:48.081Z,59.83
2023-03-24T07:25:55.591Z,59.89
2023-03-24T07:27:18.476Z,59.52
2023-03-24T07:28:21.972Z,59.79
2023-03-24T07:29:25.238Z,59.79
2023-03-24T07:30:40.956Z,59.61
2023-03-24T07:31:44.185Z,59.56
2023-03-24T07:32:48.669Z,59.84
2023-03-24T07:33:53.589Z,59.98
2023-03-24T07:34:57.730Z,60.07
2023-03-24T07:36:00.084Z,60.01
2023-03-24T07:37:02.854Z,59.92
2023-03-24T07:38:06.248Z,59.93
2023-03-24T07:39:08.834Z,59.91
2023-03-24T07:40:14.364Z,59.69
2023-03-24T07:41:17.743Z,59.75
2023-03-24T07:42:21.967Z,59.92
2023-03-24T07:43:44.767Z,59.78
2023-03-24T07:46:09.603Z,59.31
2023-03-24T07:47:12.693Z,59.29
2023-03-24T07:48:17.549Z,59.38
2023-03-24T07:49:20.355Z,59.54
2023-03-24T07:50:40.332Z,59.31
2023-03-24T07:51:45.367Z,59.20
2023-03-24T07:52:52.904Z,59.11
2023-03-24T07:53:56.115Z,59.10
2023-03-24T07:55:01.639Z,59.26
2023-03-24T07:56:09.116Z,59.27
2023-03-24T07:57:13.378Z,59.26
2023-03-24T07:58:16.401Z,59.60
2023-03-24T07:59:21.784Z,59.05
2023-03-24T08:00:24.467Z,59.04
2023-03-24T08:01:29.278Z,59.04
2023-03-24T08:02:33.455Z,59.33
2023-03-24T08:03:42.174Z,59.18
2023-03-24T08:04:52.904Z,59.04
2023-03-24T08:06:05.309Z,58.99
2023-03-24T08:07:11.310Z,59.06
2023-03-24T08:08:14.345Z,59.01
2023-03-24T08:09:17.326Z,58.83
2023-03-24T08:10:23.499Z,58.73
2023-03-24T08:11:25.997Z,58.60
2023-03-24T08:12:28.375Z,58.49
2023-03-24T08:13:31.895Z,58.68
2023-03-24T08:14:34.540Z,58.72
2023-03-24T08:15:37.354Z,58.54
2023-03-24T08:16:42.133Z,58.46
2023-03-24T08:17:46.171Z,58.50
2023-03-24T08:18:51.261Z,58.64
2023-03-24T08:20:00.127Z,58.46
2023-03-24T08:21:00.811Z,58.51
2023-03-24T08:22:03.492Z,58.41
2023-03-24T08:23:06.017Z,58.43
2023-03-24T08:24:08.275Z,58.43
2023-03-24T08:25:12.726Z,58.49
2023-03-24T08:26:15.198Z,58.38
2023-03-24T08:27:17.377Z,58.28
2023-03-24T08:28:20.028Z,58.41
2023-03-24T08:29:22.339Z,58.39
2023-03-24T08:30:26.680Z,58.45
2023-03-24T08:31:35.013Z,58.31
2023-03-24T08:32:37.689Z,58.29
2023-03-24T08:33:41.750Z,58.36
2023-03-24T08:34:44.197Z,58.05
2023-03-24T08:35:47.667Z,58.11
2023-03-24T08:36:50.721Z,58.12
2023-03-24T08:37:52.998Z,58.04
2023-03-24T08:38:56.332Z,57.74
2023-03-24T08:40:01.174Z,57.60
2023-03-24T08:41:06.118Z,57.58
2023-03-24T08:42:08.541Z,57.61
2023-03-24T08:43:14.051Z,57.37
2023-03-24T08:44:16.929Z,57.29
2023-03-24T08:45:22.945Z,57.46
2023-03-24T08:46:25.997Z,57.40
2023-03-24T08:47:29.669Z,57.30
2023-03-24T08:48:32.434Z,57.24
2023-03-24T08:49:34.868Z,57.49
2023-03-24T08:50:41.137Z,57.09
2023-03-24T08:51:44.403Z,57.13
2023-03-24T08:52:49.981Z,56.73
2023-03-24T08:53:53.333Z,56.78
2023-03-24T08:54:56.005Z,56.74
2023-03-24T08:55:58.441Z,56.71
2023-03-24T08:57:00.827Z,57.20
2023-03-24T08:58:04.356Z,57.42
2023-03-24T08:59:06.932Z,57.23
2023-03-24T09:00:12.635Z,57.21
2023-03-24T09:01:15.492Z,57.06
2023-03-24T09:02:17.924Z,57.04
2023-03-24T09:03:21.591Z,56.65
2023-03-24T09:04:24.798Z,56.86
2023-03-24T09:05:43.564Z,56.85
2023-03-24T09:06:32.243Z,56.84
2023-03-24T09:07:34.918Z,56.75
2023-03-24T09:08:37.654Z,56.10
2023-03-24T09:09:40.195Z,56.39
2023-03-24T09:10:46.251Z,56.02
2023-03-24T09:11:48.895Z,55.79
2023-03-24T09:12:52.212Z,55.50
2023-03-24T09:13:54.731Z,55.55
2023-03-24T09:14:56.740Z,55.34
2023-03-24T09:16:02.957Z,55.19
2023-03-24T09:17:06.510Z,55.18
2023-03-24T09:18:09.257Z,55.56
2023-03-24T09:19:11.702Z,55.30
2023-03-24T09:20:15.338Z,55.40
2023-03-24T09:21:18.158Z,55.28
2023-03-24T09:22:20.540Z,55.80
2023-03-24T09:23:23.158Z,55.43
2023-03-24T09:24:25.686Z,55.08
2023-03-24T09:25:27.953Z,55.26
2023-03-24T09:26:30.518Z,55.38
2023-03-24T09:27:33.067Z,55.66
2023-03-24T09:28:35.529Z,55.67
2023-03-24T09:29:38.119Z,54.99
2023-03-24T09:30:41.773Z,54.99
2023-03-24T09:31:44.244Z,55.13
2023-03-24T09:32:47.118Z,55.08
2023-03-24T09:33:50.559Z,55.50
2023-03-24T09:34:53.527Z,54.99
2023-03-24T09:35:59.649Z,54.57
2023-03-24T09:37:01.667Z,54.83
2023-03-24T09:38:05.416Z,54.71
2023-03-24T09:39:09.405Z,54.51
2023-03-24T09:40:28.425Z,54.24
2023-03-24T09:41:33.219Z,54.32
2023-03-24T09:42:39.251Z,54.35
2023-03-24T09:43:46.405Z,54.28
2023-03-24T09:44:53.077Z,54.86
2023-03-24T09:45:59.185Z,54.73
2023-03-24T09:47:20.161Z,54.38
2023-03-24T09:48:38.773Z,54.27
2023-03-24T09:49:43.783Z,53.90
2023-03-24T09:51:13.895Z,54.02
2023-03-24T09:52:19.725Z,54.20
2023-03-24T09:53:34.322Z,55.00
2023-03-24T09:54:49.380Z,55.01
2023-03-24T09:55:52.473Z,54.68
2023-03-24T09:56:57.020Z,54.50
2023-03-24T09:58:03.059Z,54.39
2023-03-24T09:59:17.640Z,54.34
2023-03-24T10:00:27.539Z,54.57
2023-03-24T10:01:30.271Z,54.16
2023-03-24T10:02:32.756Z,54.08
2023-03-24T10:03:36.265Z,53.86
2023-03-24T10:04:38.877Z,53.89
2023-03-24T10:06:01.441Z,53.96
2023-03-24T10:07:10.329Z,53.82
2023-03-24T10:08:19.707Z,53.85
2023-03-24T10:09:28.323Z,53.13
2023-03-24T10:10:37.067Z,52.95
2023-03-24T10:11:45.797Z,52.81
2023-03-24T10:12:49.783Z,52.86
2023-03-24T10:13:55.917Z,53.03
2023-03-24T10:15:37.378Z,52.65
2023-03-24T10:16:46.827Z,52.42
2023-03-24T10:17:57.240Z,51.92
2023-03-24T10:19:22.420Z,51.74
2023-03-24T10:20:37.415Z,51.92
2023-03-24T10:21:43.478Z,51.98
2023-03-24T10:23:05.812Z,52.49
2023-03-24T10:24:18.114Z,52.33
2023-03-24T10:25:24.116Z,52.06
2023-03-24T10:26:49.856Z,51.69
2023-03-24T10:28:02.354Z,51.89
2023-03-24T10:29:23.531Z,51.82
2023-03-24T10:30:36.461Z,51.97
2023-03-24T10:31:41.084Z,51.63
2023-03-24T10:32:45.340Z,51.54
2023-03-24T10:33:47.786Z,51.26
2023-03-24T10:34:57.370Z,50.92
2023-03-24T10:36:12.078Z,51.44
2023-03-24T10:37:15.922Z,51.54
2023-03-24T10:38:20.830Z,51.74
2023-03-24T10:39:28.620Z,51.37
2023-03-24T10:40:33.713Z,51.53
2023-03-24T10:41:40.149Z,50.98
2023-03-24T10:42:44.793Z,50.70
2023-03-24T10:43:49.491Z,50.36
2023-03-24T10:44:52.571Z,50.07
2023-03-24T10:45:57.945Z,50.07
2023-03-24T10:47:03.258Z,50.02
2023-03-24T10:48:09.658Z,50.03
2023-03-24T10:49:15.737Z,49.91
2023-03-24T10:50:18.503Z,49.80
2023-03-24T10:51:27.386Z,49.83
2023-03-24T10:52:34.039Z,49.53
2023-03-24T10:53:37.042Z,49.36
2023-03-24T10:54:44.036Z,49.68
2023-03-24T10:55:48.987Z,49.79
2023-03-24T10:57:04.825Z,49.24
2023-03-24T10:58:22.979Z,49.34
2023-03-24T10:59:31.624Z,49.51
2023-03-24T11:00:39.584Z,49.35
2023-03-24T11:01:41.933Z,49.14
2023-03-24T11:02:47.901Z,49.25
2023-03-24T11:03:52.312Z,49.19
2023-03-24T11:04:58.119Z,49.62
2023-03-24T11:06:05.596Z,49.62
2023-03-24T11:07:14.260Z,50.07
2023-03-24T11:08:20.260Z,50.13
2023-03-24T11:09:23.766Z,50.21
2023-03-24T11:10:27.261Z,49.99
2023-03-24T11:11:31.890Z,50.35
2023-03-24T11:12:38.327Z,49.83
2023-03-24T11:13:40.595Z,49.79
2023-03-24T11:14:46.323Z,49.75
2023-03-24T11:15:57.971Z,49.94
2023-03-24T11:17:15.612Z,50.04
2023-03-24T11:18:18.880Z,50.19
2023-03-24T11:19:24.767Z,50.25
2023-03-24T11:20:38.855Z,50.10
2023-03-24T11:21:43.621Z,50.43
2023-03-24T11:22:59.091Z,49.98
2023-03-24T11:24:04.410Z,50.09
2023-03-24T11:25:10.435Z,50.06
2023-03-24T11:26:16.428Z,50.07
2023-03-24T11:27:20.313Z,50.15
2023-03-24T11:28:26.290Z,50.10
2023-03-24T11:29:32.690Z,49.93
2023-03-24T11:30:50.001Z,49.86
2023-03-24T11:31:55.934Z,49.70
2023-03-24T11:32:59.252Z,49.33
2023-03-24T11:34:12.384Z,49.21
2023-03-24T11:35:18.828Z,49.02
2023-03-24T11:36:34.160Z,49.19
2023-03-24T11:37:37.828Z,48.94
2023-03-24T11:38:41.402Z,49.02
2023-03-24T11:39:44.083Z,48.69
2023-03-24T11:40:58.076Z,48.58
2023-03-24T11:42:16.976Z,48.42
2023-03-24T11:43:21.406Z,48.08
2023-03-24T11:44:25.047Z,48.31
2023-03-24T11:45:42.839Z,48.33
2023-03-24T11:46:49.579Z,48.23
2023-03-24T11:47:55.853Z,48.17
2023-03-24T11:48:59.764Z,47.87
2023-03-24T11:50:16.066Z,47.62
2023-03-24T11:51:35.393Z,47.56
2023-03-24T11:52:41.360Z,47.57
2023-03-24T11:53:50.239Z,47.14
2023-03-24T11:54:52.605Z,46.77
2023-03-24T11:56:21.248Z,46.08
2023-03-24T11:59:06.134Z,45.82
2023-03-24T12:00:17.111Z,45.82
2023-03-24T12:01:25.089Z,45.56
2023-03-24T12:02:52.122Z,45.05
2023-03-24T12:04:16.600Z,44.87
2023-03-24T12:05:43.784Z,44.58
2023-03-24T12:07:10.435Z,44.56
2023-03-24T12:08:19.403Z,44.41
2023-03-24T12:09:34.270Z,44.52
2023-03-24T12:10:52.200Z,44.37
2023-03-24T12:12:08.781Z,43.99
2023-03-24T12:14:56.205Z,43.71
2023-03-24T12:16:18.416Z,43.72
2023-03-24T12:17:29.199Z,43.61
2023-03-24T12:18:41.082Z,43.52
2023-03-24T12:19:59.060Z,43.67
2023-03-24T12:21:25.425Z,43.37
2023-03-24T12:22:43.667Z,43.77
2023-03-24T12:24:13.865Z,43.37
2023-03-24T12:25:42.038Z,43.47
2023-03-24T12:26:44.571Z,43.28
2023-03-24T12:28:00.437Z,43.33
2023-03-24T12:29:33.621Z,43.00
2023-03-24T12:31:02.537Z,42.79
2023-03-24T12:32:23.600Z,42.65
2023-03-24T12:33:36.828Z,42.17
2023-03-24T12:35:11.843Z,41.96
2023-03-24T12:36:36.720Z,41.94
2023-03-24T12:38:08.250Z,41.83
2023-03-24T12:39:15.894Z,41.72
2023-03-24T12:40:39.383Z,42.02
2023-03-24T12:42:00.746Z,42.24
2023-03-24T12:43:09.927Z,42.14
2023-03-24T12:44:42.091Z,41.95
2023-03-24T12:45:50.217Z,42.33
2023-03-24T12:47:31.525Z,42.27
2023-03-24T12:49:01.105Z,42.23
2023-03-24T12:50:23.978Z,42.70
2023-03-24T12:51:36.449Z,42.96
2023-03-24T12:53:08.582Z,43.11
2023-03-24T12:54:34.006Z,43.21
2023-03-24T12:55:43.063Z,43.31
2023-03-24T12:58:53.975Z,43.32
2023-03-24T13:00:07.381Z,43.37
2023-03-24T13:01:28.877Z,43.28
2023-03-24T13:02:39.968Z,43.26
2023-03-24T13:03:52.978Z,43.44
2023-03-24T13:05:04.810Z,44.85
2023-03-24T13:06:17.630Z,43.89
2023-03-24T13:07:25.636Z,43.28
2023-03-24T13:08:32.106Z,43.38
2023-03-24T13:09:58.952Z,49.09
2023-03-24T13:11:08.020Z,43.83
2023-03-24T13:12:14.342Z,44.10
2023-03-24T13:13:23.269Z,44.21
2023-03-24T13:14:29.186Z,43.08
2023-03-24T13:15:56.296Z,44.88
2023-03-24T13:17:05.168Z,40.73
2023-03-24T13:18:11.048Z,41.11
2023-03-24T13:19:21.282Z,45.93
2023-03-24T13:20:48.159Z,44.12
2023-03-24T13:21:54.397Z,45.90
2023-03-24T13:23:00.995Z,41.06
2023-03-24T13:24:14.374Z,41.60
2023-03-24T13:25:36.870Z,41.90
2023-03-24T13:27:06.695Z,41.22
2023-03-24T13:28:12.718Z,44.92
2023-03-24T13:29:24.822Z,44.20
2023-03-24T13:30:33.547Z,43.47
2023-03-24T13:31:51.535Z,44.98
2023-03-24T13:32:58.333Z,41.98
2023-03-24T13:34:03.027Z,41.48
2023-03-24T13:35:21.640Z,45.50
2023-03-24T13:36:46.370Z,43.73
2023-03-24T13:37:55.298Z,41.97
2023-03-24T13:39:05.131Z,41.58
2023-03-24T13:40:15.722Z,45.78
2023-03-24T13:41:23.898Z,41.29
2023-03-24T13:42:35.319Z,41.10
2023-03-24T13:43:42.218Z,41.19
2023-03-24T13:44:48.337Z,41.37
2023-03-24T13:46:07.128Z,41.50
2023-03-24T13:47:17.054Z,44.39
2023-03-24T13:48:41.670Z,41.91
2023-03-24T13:50:06.167Z,41.22
2023-03-24T13:51:18.000Z,44.08
2023-03-24T13:52:28.984Z,41.21
2023-03-24T13:53:46.346Z,41.16
2023-03-24T13:54:51.037Z,41.28
2023-03-24T13:55:53.565Z,41.31
2023-03-24T13:57:08.106Z,41.42
2023-03-24T13:58:28.953Z,41.49
2023-03-24T13:59:41.105Z,41.46
2023-03-24T14:01:07.250Z,43.19
2023-03-24T14:02:19.368Z,41.46
2023-03-24T14:03:33.789Z,41.72
2023-03-24T14:05:04.174Z,41.63
2023-03-24T14:06:09.682Z,42.01
2023-03-24T14:07:31.998Z,42.49
2023-03-24T14:08:53.187Z,41.73
2023-03-24T14:10:05.211Z,41.71
2023-03-24T14:11:37.148Z,41.99
2023-03-24T14:13:01.300Z,41.88
2023-03-24T14:14:19.714Z,41.81
2023-03-24T14:15:34.425Z,41.89
2023-03-24T14:16:59.868Z,42.18
2023-03-24T14:18:26.086Z,42.09
2023-03-24T14:19:41.440Z,43.06
2023-03-24T14:21:00.234Z,43.01
2023-03-24T14:22:24.056Z,42.48
2023-03-24T14:23:48.755Z,41.99
2023-03-24T14:26:17.689Z,42.41
2023-03-24T14:27:35.820Z,41.98
2023-03-24T14:28:43.028Z,42.35
2023-03-24T14:29:51.374Z,42.31
2023-03-24T14:31:17.860Z,42.36
2023-03-24T14:32:22.588Z,43.58
2023-03-24T14:33:28.080Z,42.70
2023-03-24T14:34:30.562Z,42.56
2023-03-24T14:35:43.471Z,42.68
2023-03-24T14:36:50.289Z,42.79
2023-03-24T14:37:59.962Z,42.71
2023-03-24T14:39:33.886Z,42.85
2023-03-24T14:40:39.994Z,42.75
2023-03-24T14:41:45.343Z,43.42
2023-03-24T14:42:51.549Z,42.89
2023-03-24T14:44:00.843Z,42.96
2023-03-24T14:45:27.947Z,43.08
2023-03-24T14:46:48.820Z,43.44
2023-03-24T14:48:01.003Z,43.06
2023-03-24T14:49:09.849Z,43.08
2023-03-24T14:50:23.216Z,43.19
2023-03-24T14:51:32.350Z,43.30
2023-03-24T14:52:39.664Z,43.46
2023-03-24T14:53:41.989Z,43.22
2023-03-24T14:54:47.678Z,43.57
2023-03-24T14:55:52.112Z,43.29
2023-03-24T14:56:58.001Z,43.23
2023-03-24T14:58:04.037Z,43.41
2023-03-24T14:59:12.693Z,43.34
2023-03-24T15:00:23.380Z,43.55
2023-03-24T15:01:30.764Z,43.79